Cherokee — 9HBC7 — position and weather

sailwx.info

Track history (hours):
 
Tides and Currents Weather Stations Pressure Air Temp Water Temp Dewpoint Dewpoint Depression Visibility Wind Speed Wind Dir Waves Ship Positions

Cherokee

Last reported at 2016-Jun-22 09:29 UTC. Time now 2016-Jun-27 13:16 UTC.
Position N 44°55' E 036°29'.

Length 140 m; draft 3.8 m.

Type: Cargo ship. MMSI: 215059000.

Date/timePositionNaut miles runAvg speedWind from/ knotsBaromVisibWave heightAir tempDewpointWater temp
2016-Jun-22 09:29N 44°55' E 036°29'6 5.9
2016-Jun-22 08:24N 45°02' E 036°29'6 6.5
2016-Jun-22 07:33N 45°07' E 036°29'8 7.7
2016-Jun-22 06:34N 45°15' E 036°28'7 6.9
2016-Jun-22 05:33N 45°20' E 036°35'5 5.4
2016-Jun-22 04:33N 45°24' E 036°40'6 6.5
2016-Jun-22 03:33N 45°30' E 036°43'6 5.8
2016-Jun-22 02:33N 45°35' E 036°46'6 5.7
2016-Jun-22 01:33N 45°41' E 036°49'6 5.8
2016-Jun-22 00:33N 45°46' E 036°52'6 5.8
2016-Jun-21 23:33N 45°51' E 036°55'6 5.9
2016-Jun-21 22:33N 45°57' E 036°58'8 6.0
2016-Jun-21 21:13N 46°05' E 037°02'128 3.2
2016-Jun-20 05:25N 47°12' E 039°40'0 0.0
2016-Jun-20 04:28N 47°12' E 039°40'0 0.0
2016-Jun-19 22:34N 47°12' E 039°40'0 0.0
2016-Jun-19 21:19N 47°12' E 039°40'0 0.0
2016-Jun-19 20:19N 47°12' E 039°40'  
2016-Jun-13 05:33N 45°31' E 036°45'8 8.4
2016-Jun-13 04:34N 45°24' E 036°41'7 7.3
2016-Jun-13 03:34N 45°19' E 036°33'6 5.7
2016-Jun-13 02:34N 45°14' E 036°28'4 0.6
2016-Jun-12 19:31N 45°11' E 036°31'4 3.9
2016-Jun-12 18:33N 45°07' E 036°30'  
Track history (hours):
 
Tides and Currents Weather Stations Pressure Air Temp Water Temp Dewpoint Dewpoint Depression Visibility Wind Speed Wind Dir Waves Ship Positions

Cherokee

Last reported at 2016-Jun-22 09:29 UTC. Time now 2016-Jun-27 13:16 UTC.
Position N 44°55' E 036°29'.

Length 140 m; draft 3.8 m.

Type: Cargo ship. MMSI: 215059000.

Date/timePositionNaut miles runAvg speedWind from/ knotsBaromVisibWave heightAir tempDewpointWater temp
2016-Jun-22 09:29N 44°55' E 036°29'6 5.9
2016-Jun-22 08:24N 45°02' E 036°29'6 6.5
2016-Jun-22 07:33N 45°07' E 036°29'8 7.7
2016-Jun-22 06:34N 45°15' E 036°28'7 6.9
2016-Jun-22 05:33N 45°20' E 036°35'5 5.4
2016-Jun-22 04:33N 45°24' E 036°40'6 6.5
2016-Jun-22 03:33N 45°30' E 036°43'6 5.8
2016-Jun-22 02:33N 45°35' E 036°46'6 5.7
2016-Jun-22 01:33N 45°41' E 036°49'6 5.8
2016-Jun-22 00:33N 45°46' E 036°52'6 5.8
2016-Jun-21 23:33N 45°51' E 036°55'6 5.9
2016-Jun-21 22:33N 45°57' E 036°58'8 6.0
2016-Jun-21 21:13N 46°05' E 037°02'128 3.2
2016-Jun-20 05:25N 47°12' E 039°40'0 0.0
2016-Jun-20 04:28N 47°12' E 039°40'0 0.0
2016-Jun-19 22:34N 47°12' E 039°40'0 0.0
2016-Jun-19 21:19N 47°12' E 039°40'0 0.0
2016-Jun-19 20:19N 47°12' E 039°40'  
2016-Jun-13 05:33N 45°31' E 036°45'8 8.4
2016-Jun-13 04:34N 45°24' E 036°41'7 7.3
2016-Jun-13 03:34N 45°19' E 036°33'6 5.7
2016-Jun-13 02:34N 45°14' E 036°28'4 0.6
2016-Jun-12 19:31N 45°11' E 036°31'4 3.9
2016-Jun-12 18:33N 45°07' E 036°30'  

Dump ship's entire track history